Time;durP1;ratioP1;P1;durP2;ratioP2;P2;SDS_P1;SDS_P2;PMS_P1;PMS_P2;Temp;Humidity;BMP_temperature;BMP_pressure;BME280_temperature;BME280_humidity;BME280_pressure;Samples;Min_cycle;Max_cycle;Signal;HPM_P1;HPM_P2
2020/12/25 00:00:57;;;;;;;;;;;6.40;82.20;;;;;;4739355;30;19919;-82
2020/12/25 00:03:22;;;;;;;;;;;6.40;82.20;;;;;;4755140;30;19937;-82
2020/12/25 00:05:49;;;;;;;;;;;6.40;82.10;;;;;;4754042;30;19941;-83
2020/12/25 00:08:14;;;;;;;;;;;6.40;82.10;;;;;;4755394;30;20024;-82
2020/12/25 00:10:41;;;;;;;;;;;6.40;82.00;;;;;;4756024;30;19961;-82
2020/12/25 00:13:06;;;;;;;;;;;6.40;82.00;;;;;;4753876;30;19967;-81
2020/12/25 00:15:32;;;;;;;;;;;6.40;82.00;;;;;;4754431;30;20461;-82
2020/12/25 00:17:57;;;;;;;;;;;6.40;81.90;;;;;;4754375;30;19937;-81
2020/12/25 00:20:23;;;;;;;;;;;6.40;81.90;;;;;;4753533;30;20396;-82
2020/12/25 00:22:48;;;;;;;;;;;6.40;81.80;;;;;;4738951;30;19972;-82
2020/12/25 00:25:14;;;;;;;;;;;6.40;81.70;;;;;;4753218;30;19980;-82
2020/12/25 00:27:39;;;;;;;;;;;6.40;81.70;;;;;;4754191;30;19918;-82
2020/12/25 00:30:05;;;;;;;;;;;6.40;81.60;;;;;;4739050;30;19926;-82
2020/12/25 00:32:31;;;;;;;;;;;6.40;81.60;;;;;;4754099;30;19950;-82
2020/12/25 00:34:56;;;;;;;;;;;6.40;81.60;;;;;;4753644;30;20025;-82
2020/12/25 00:37:22;;;;;;;;;;;6.40;81.60;;;;;;4753841;30;19950;-82
2020/12/25 00:39:48;;;;;;;;;;;6.40;81.60;;;;;;4755208;30;20272;-82
2020/12/25 00:42:13;;;;;;;;;;;6.30;81.50;;;;;;4738707;30;19983;-82
2020/12/25 00:44:38;;;;;;;;;;;6.30;81.60;;;;;;4752497;30;19918;-82
2020/12/25 00:47:04;;;;;;;;;;;6.30;81.50;;;;;;4753053;30;19976;-82
2020/12/25 00:49:30;;;;;;;;;;;6.30;81.50;;;;;;4755041;30;20032;-82
2020/12/25 00:51:55;;;;;;;;;;;6.30;81.50;;;;;;4753827;30;20282;-82
2020/12/25 00:54:21;;;;;;;;;;;6.30;81.60;;;;;;4738231;30;20414;-82
2020/12/25 00:56:46;;;;;;;;;;;6.20;81.60;;;;;;4739119;30;19923;-82
2020/12/25 00:59:12;;;;;;;;;;;6.20;81.60;;;;;;4753407;30;20393;-82
2020/12/25 01:01:37;;;;;;;;;;;6.20;81.60;;;;;;4754404;30;20008;-82
2020/12/25 01:04:03;;;;;;;;;;;6.20;81.50;;;;;;4737989;30;19933;-83
2020/12/25 01:06:28;;;;;;;;;;;6.30;81.60;;;;;;4738490;30;20278;-82
2020/12/25 01:08:54;;;;;;;;;;;6.20;81.40;;;;;;4738156;30;20056;-82
2020/12/25 01:11:22;;;;;;;;;;;6.20;81.40;;;;;;4752641;30;19918;-82
2020/12/25 01:13:48;;;;;;;;;;;6.20;81.40;;;;;;4754008;30;19914;-82
2020/12/25 01:16:18;;;;;;;;;;;6.20;81.20;;;;;;4754060;30;19944;-82
2020/12/25 01:18:44;;;;;;;;;;;6.20;81.30;;;;;;4753247;30;19918;-82
2020/12/25 01:21:10;;;;;;;;;;;6.20;81.40;;;;;;4753813;30;20270;-82
2020/12/25 01:23:36;;;;;;;;;;;6.20;81.40;;;;;;4753532;30;20330;-82
2020/12/25 01:26:02;;;;;;;;;;;6.20;81.30;;;;;;4753250;30;19918;-81
2020/12/25 01:28:27;;;;;;;;;;;6.20;81.20;;;;;;4752626;30;20429;-83
2020/12/25 01:30:53;;;;;;;;;;;6.20;81.20;;;;;;4737948;30;19918;-82
2020/12/25 01:33:18;;;;;;;;;;;6.10;81.20;;;;;;4752308;30;19914;-82
2020/12/25 01:35:44;;;;;;;;;;;6.10;81.20;;;;;;4737714;30;19926;-82
2020/12/25 01:38:09;;;;;;;;;;;6.10;81.20;;;;;;4737431;30;19925;-82
2020/12/25 01:40:35;;;;;;;;;;;6.10;81.30;;;;;;4752636;30;20452;-81
2020/12/25 01:43:00;;;;;;;;;;;6.20;81.20;;;;;;4753220;30;19914;-82
2020/12/25 01:45:26;;;;;;;;;;;6.10;81.10;;;;;;4752662;30;20008;-82
2020/12/25 01:47:53;;;;;;;;;;;6.10;81.20;;;;;;4738167;30;20329;-82
2020/12/25 01:50:19;;;;;;;;;;;6.10;81.20;;;;;;4752495;30;20396;-82
2020/12/25 01:52:45;;;;;;;;;;;6.10;81.10;;;;;;4752734;30;19941;-82
2020/12/25 01:55:12;;;;;;;;;;;6.10;81.10;;;;;;4751240;30;20381;-82
2020/12/25 01:57:38;;;;;;;;;;;6.10;81.10;;;;;;4751377;30;19914;-82
2020/12/25 02:00:04;;;;;;;;;;;6.10;81.10;;;;;;4750752;30;19925;-82
2020/12/25 02:02:31;;;;;;;;;;;6.10;81.00;;;;;;4751065;30;19922;-82
2020/12/25 02:04:57;;;;;;;;;;;6.10;81.10;;;;;;4750984;30;19918;-82
2020/12/25 02:07:22;;;;;;;;;;;6.10;81.00;;;;;;4752246;30;19925;-82
2020/12/25 02:09:48;;;;;;;;;;;6.10;80.90;;;;;;4750832;30;19979;-82
2020/12/25 02:12:13;;;;;;;;;;;6.10;80.80;;;;;;4736187;30;20013;-82
2020/12/25 02:14:39;;;;;;;;;;;6.00;80.90;;;;;;4753161;30;19926;-82
2020/12/25 02:17:04;;;;;;;;;;;6.00;80.90;;;;;;4752529;30;19922;-82
2020/12/25 02:19:30;;;;;;;;;;;6.00;80.90;;;;;;4751401;30;19918;-82
2020/12/25 02:21:55;;;;;;;;;;;6.00;80.80;;;;;;4751802;30;19915;-82
2020/12/25 02:24:21;;;;;;;;;;;6.00;80.80;;;;;;4752910;30;20369;-82
2020/12/25 02:26:46;;;;;;;;;;;6.00;80.80;;;;;;4751641;30;19972;-82
2020/12/25 02:29:12;;;;;;;;;;;6.00;80.80;;;;;;4751229;30;19915;-82
2020/12/25 02:31:37;;;;;;;;;;;6.00;80.80;;;;;;4750823;30;20374;-82
2020/12/25 02:34:03;;;;;;;;;;;5.90;80.70;;;;;;4752510;30;20372;-82
2020/12/25 02:36:28;;;;;;;;;;;5.90;80.50;;;;;;4752315;30;20270;-82
2020/12/25 02:38:54;;;;;;;;;;;5.90;80.50;;;;;;4752682;30;19995;-82
2020/12/25 02:41:21;;;;;;;;;;;5.80;80.60;;;;;;4731548;30;20309;-82
2020/12/25 02:43:48;;;;;;;;;;;5.90;80.60;;;;;;4747996;30;20442;-82
2020/12/25 02:46:13;;;;;;;;;;;5.80;80.50;;;;;;4742694;30;20013;-82
2020/12/25 02:48:39;;;;;;;;;;;5.80;80.50;;;;;;4750718;30;20012;-82
2020/12/25 02:51:04;;;;;;;;;;;5.80;80.60;;;;;;4736684;30;19922;-82
2020/12/25 02:53:30;;;;;;;;;;;5.70;80.60;;;;;;4750813;30;19926;-81
2020/12/25 02:55:55;;;;;;;;;;;5.70;80.50;;;;;;4769814;30;19944;-82
2020/12/25 02:58:21;;;;;;;;;;;5.70;80.40;;;;;;4769663;30;19925;-82
2020/12/25 03:00:46;;;;;;;;;;;5.70;80.50;;;;;;4753838;30;19925;-82
2020/12/25 03:03:12;;;;;;;;;;;5.70;80.50;;;;;;4739205;30;20004;-82
2020/12/25 03:05:37;;;;;;;;;;;5.60;80.50;;;;;;4754032;30;19928;-82
2020/12/25 03:08:03;;;;;;;;;;;5.60;80.60;;;;;;4737688;30;20369;-82
2020/12/25 03:10:28;;;;;;;;;;;5.60;80.60;;;;;;4737204;30;19979;-82
2020/12/25 03:12:54;;;;;;;;;;;5.60;80.50;;;;;;4753374;30;19922;-82
2020/12/25 03:15:19;;;;;;;;;;;5.60;80.50;;;;;;4768749;30;19975;-82
2020/12/25 03:17:45;;;;;;;;;;;5.60;80.50;;;;;;4751948;30;20347;-82
2020/12/25 03:20:10;;;;;;;;;;;5.50;80.50;;;;;;4737930;30;20017;-82
2020/12/25 03:22:36;;;;;;;;;;;5.50;80.50;;;;;;4753154;30;20319;-82
2020/12/25 03:25:01;;;;;;;;;;;5.50;80.30;;;;;;4738303;30;19924;-82
2020/12/25 03:27:27;;;;;;;;;;;5.40;80.40;;;;;;4751252;30;20028;-82
2020/12/25 03:29:52;;;;;;;;;;;5.40;80.50;;;;;;4751115;30;20375;-82
2020/12/25 03:32:18;;;;;;;;;;;5.40;80.60;;;;;;4750368;30;19926;-82
2020/12/25 03:34:43;;;;;;;;;;;5.40;81.10;;;;;;4751220;30;20346;-82
2020/12/25 03:37:09;;;;;;;;;;;5.30;80.60;;;;;;4736643;30;19971;-82
2020/12/25 03:39:34;;;;;;;;;;;5.30;80.60;;;;;;4736611;30;20293;-82
2020/12/25 03:42:00;;;;;;;;;;;5.30;80.60;;;;;;4737423;30;19918;-82
2020/12/25 03:44:25;;;;;;;;;;;5.30;80.60;;;;;;4752522;30;19922;-82
2020/12/25 03:46:51;;;;;;;;;;;5.30;80.60;;;;;;4768980;30;19918;-82
2020/12/25 03:49:16;;;;;;;;;;;5.20;80.60;;;;;;4768493;30;19957;-82
2020/12/25 03:51:41;;;;;;;;;;;5.20;80.70;;;;;;4768983;30;19949;-82
2020/12/25 03:54:07;;;;;;;;;;;5.20;80.80;;;;;;4785627;24;19933;-82
2020/12/25 03:56:32;;;;;;;;;;;5.20;80.80;;;;;;4755391;30;20012;-82
2020/12/25 03:58:58;;;;;;;;;;;5.10;80.70;;;;;;4770140;30;19937;-82
2020/12/25 04:01:23;;;;;;;;;;;5.10;80.80;;;;;;4786763;30;20012;-82
2020/12/25 04:03:49;;;;;;;;;;;5.10;80.80;;;;;;4755786;30;19917;-82
2020/12/25 04:06:14;;;;;;;;;;;5.10;80.80;;;;;;4770217;30;19918;-82
2020/12/25 04:08:40;;;;;;;;;;;5.10;80.80;;;;;;4770559;30;19948;-82
2020/12/25 04:11:07;;;;;;;;;;;5.10;80.80;;;;;;4786706;30;20433;-82
2020/12/25 04:13:33;;;;;;;;;;;5.10;81.50;;;;;;4786258;30;19913;-82
2020/12/25 04:15:59;;;;;;;;;;;5.00;80.80;;;;;;4770502;30;20083;-82
2020/12/25 04:18:25;;;;;;;;;;;5.10;80.90;;;;;;4770158;30;19938;-82
2020/12/25 04:20:52;;;;;;;;;;;5.10;80.80;;;;;;4786594;30;19917;-82
2020/12/25 04:23:18;;;;;;;;;;;5.00;80.70;;;;;;4786268;30;19922;-81
2020/12/25 04:25:43;;;;;;;;;;;5.00;80.80;;;;;;4770619;30;19922;-82
2020/12/25 04:28:09;;;;;;;;;;;5.00;80.80;;;;;;4770480;30;20399;-82
2020/12/25 04:30:34;;;;;;;;;;;5.00;80.80;;;;;;4754829;30;19918;-82
2020/12/25 04:33:00;;;;;;;;;;;4.90;80.80;;;;;;4737810;30;19934;-82
2020/12/25 04:35:25;;;;;;;;;;;5.00;80.90;;;;;;4737433;30;19926;-82
2020/12/25 04:37:51;;;;;;;;;;;4.90;80.80;;;;;;4752601;30;19971;-82
2020/12/25 04:40:16;;;;;;;;;;;4.90;80.80;;;;;;4768334;30;19922;-82
2020/12/25 04:42:45;;;;;;;;;;;4.90;80.80;;;;;;4739084;30;20536;-82
2020/12/25 04:45:12;;;;;;;;;;;4.90;80.80;;;;;;4754904;30;21349;-82
2020/12/25 04:47:38;;;;;;;;;;;4.90;80.80;;;;;;4740951;30;19964;-82
2020/12/25 04:50:04;;;;;;;;;;;4.90;80.80;;;;;;4771735;30;19913;-81
2020/12/25 04:52:30;;;;;;;;;;;4.90;80.80;;;;;;4755323;30;19967;-80
2020/12/25 04:54:55;;;;;;;;;;;4.90;80.80;;;;;;4755305;30;19926;-81
2020/12/25 04:57:21;;;;;;;;;;;4.90;80.80;;;;;;4771370;30;19921;-81
2020/12/25 04:59:47;;;;;;;;;;;4.90;80.80;;;;;;4752099;30;19925;-81
2020/12/25 05:02:14;;;;;;;;;;;4.90;80.70;;;;;;4789164;30;19975;-81
2020/12/25 05:04:39;;;;;;;;;;;4.90;80.70;;;;;;4773222;30;19914;-81
2020/12/25 05:07:06;;;;;;;;;;;4.90;80.60;;;;;;4773184;30;19917;-81
2020/12/25 05:09:31;;;;;;;;;;;4.90;80.70;;;;;;4789004;29;19917;-81
2020/12/25 05:11:57;;;;;;;;;;;4.80;80.70;;;;;;4758377;30;19953;-82
2020/12/25 05:14:27;;;;;;;;;;;4.80;80.70;;;;;;4772600;30;19974;-81
2020/12/25 05:16:53;;;;;;;;;;;4.90;80.80;;;;;;4789157;30;19925;-81
2020/12/25 05:19:23;;;;;;;;;;;4.80;80.70;;;;;;4754662;30;19928;-81
2020/12/25 05:21:51;;;;;;;;;;;4.90;80.80;;;;;;4771206;30;20365;-82
2020/12/25 05:24:17;;;;;;;;;;;4.90;80.70;;;;;;4771085;30;19922;-81
2020/12/25 05:26:50;;;;;;;;;;;4.90;80.70;;;;;;4755018;30;19922;-81
2020/12/25 05:29:15;;;;;;;;;;;4.90;80.60;;;;;;4754624;30;20010;-81
2020/12/25 05:31:46;;;;;;;;;;;4.80;80.60;;;;;;4750340;30;19976;-81
2020/12/25 05:34:12;;;;;;;;;;;4.80;80.60;;;;;;4754458;30;19989;-81
2020/12/25 05:36:38;;;;;;;;;;;4.80;80.60;;;;;;4754867;30;19922;-81
2020/12/25 05:39:03;;;;;;;;;;;4.80;80.60;;;;;;4740190;30;20308;-81
2020/12/25 05:41:29;;;;;;;;;;;4.80;80.60;;;;;;4754478;30;19918;-81
2020/12/25 05:43:54;;;;;;;;;;;4.80;80.50;;;;;;4770870;30;20024;-81
2020/12/25 05:46:20;;;;;;;;;;;4.80;80.50;;;;;;4754727;30;19918;-81
2020/12/25 05:48:49;;;;;;;;;;;4.80;80.50;;;;;;4754783;30;20403;-81
2020/12/25 05:51:15;;;;;;;;;;;4.80;80.50;;;;;;4754367;30;19914;-81
2020/12/25 05:53:43;;;;;;;;;;;4.70;80.50;;;;;;4769658;30;19999;-81
2020/12/25 05:56:08;;;;;;;;;;;4.80;80.50;;;;;;4770586;30;19926;-81
2020/12/25 05:58:34;;;;;;;;;;;4.80;80.60;;;;;;4743892;30;20354;-81
2020/12/25 06:01:00;;;;;;;;;;;4.70;80.50;;;;;;4757750;30;19917;-82
2020/12/25 06:03:26;;;;;;;;;;;4.70;80.50;;;;;;4785953;29;19918;-81
2020/12/25 06:05:55;;;;;;;;;;;4.70;80.50;;;;;;4770477;30;19974;-81
2020/12/25 06:08:37;;;;;;;;;;;4.70;80.50;;;;;;4754045;30;19918;-82
2020/12/25 06:11:03;;;;;;;;;;;4.70;80.50;;;;;;4739607;30;19963;-81
2020/12/25 06:13:38;;;;;;;;;;;4.70;80.50;;;;;;4753956;30;20386;-81
2020/12/25 06:16:05;;;;;;;;;;;4.70;80.50;;;;;;4754199;30;19917;-81
2020/12/25 06:18:41;;;;;;;;;;;4.70;80.50;;;;;;4753769;30;19958;-81
2020/12/25 06:21:10;;;;;;;;;;;4.60;80.50;;;;;;4754506;30;20020;-81
2020/12/25 06:23:37;;;;;;;;;;;4.60;80.50;;;;;;4759084;30;19928;-82
2020/12/25 06:26:05;;;;;;;;;;;4.60;80.50;;;;;;4771896;30;19921;-81
2020/12/25 06:28:30;;;;;;;;;;;4.60;80.50;;;;;;4787533;30;19968;-82
2020/12/25 06:30:56;;;;;;;;;;;4.60;80.50;;;;;;4771990;30;20161;-81
2020/12/25 06:33:25;;;;;;;;;;;4.60;80.50;;;;;;4754829;30;19921;-82
2020/12/25 06:35:56;;;;;;;;;;;4.50;80.50;;;;;;4753901;30;20327;-81
2020/12/25 06:38:22;;;;;;;;;;;4.60;80.50;;;;;;4769596;30;19921;-81
2020/12/25 06:40:48;;;;;;;;;;;4.60;80.50;;;;;;4753849;30;19940;-81
2020/12/25 06:43:17;;;;;;;;;;;4.50;80.50;;;;;;4743655;30;19925;-81
2020/12/25 06:45:44;;;;;;;;;;;4.50;80.50;;;;;;4771496;30;19921;-81
2020/12/25 06:48:13;;;;;;;;;;;4.50;80.50;;;;;;4771567;30;19922;-81
2020/12/25 06:50:40;;;;;;;;;;;4.50;80.50;;;;;;4787754;30;20331;-81
2020/12/25 06:53:05;;;;;;;;;;;4.50;80.50;;;;;;4756327;30;20369;-82
2020/12/25 06:55:43;;;;;;;;;;;4.50;80.40;;;;;;4771012;30;19930;-81
2020/12/25 06:58:17;;;;;;;;;;;4.50;80.50;;;;;;4768101;30;19918;-81
2020/12/25 07:00:42;;;;;;;;;;;4.40;80.40;;;;;;4769677;30;19929;-81
2020/12/25 07:03:14;;;;;;;;;;;4.40;80.40;;;;;;4758843;30;19917;-82
2020/12/25 07:05:47;;;;;;;;;;;4.40;80.40;;;;;;4756244;30;20012;-83
2020/12/25 07:08:29;;;;;;;;;;;4.40;80.40;;;;;;4760654;30;19922;-83
2020/12/25 07:11:08;;;;;;;;;;;4.40;80.40;;;;;;4782597;29;20494;-83
2020/12/25 07:13:34;;;;;;;;;;;4.40;80.40;;;;;;4765167;30;19922;-83
2020/12/25 07:16:00;;;;;;;;;;;4.40;80.50;;;;;;4761835;30;20008;-83
2020/12/25 07:18:26;;;;;;;;;;;4.40;80.40;;;;;;4761970;30;20000;-83
2020/12/25 07:20:51;;;;;;;;;;;4.30;80.40;;;;;;4777023;30;20005;-83
2020/12/25 07:23:18;;;;;;;;;;;4.30;80.50;;;;;;4759388;30;19937;-82
2020/12/25 07:25:44;;;;;;;;;;;4.30;80.50;;;;;;4738569;30;19917;-83
2020/12/25 07:28:10;;;;;;;;;;;4.30;80.50;;;;;;4753153;30;20398;-83
2020/12/25 07:30:36;;;;;;;;;;;4.30;80.40;;;;;;4738103;30;20072;-83
2020/12/25 07:33:06;;;;;;;;;;;4.30;80.40;;;;;;4753160;30;20427;-83
2020/12/25 07:35:32;;;;;;;;;;;4.30;80.50;;;;;;4752564;30;19924;-83
2020/12/25 07:37:57;;;;;;;;;;;4.30;80.40;;;;;;4753170;30;20016;-83
2020/12/25 07:40:23;;;;;;;;;;;4.30;80.40;;;;;;4752847;30;19914;-83
2020/12/25 07:42:50;;;;;;;;;;;4.30;80.40;;;;;;4752904;30;19914;-83
2020/12/25 07:45:18;;;;;;;;;;;4.30;80.40;;;;;;4738488;30;19918;-82
2020/12/25 07:47:47;;;;;;;;;;;4.30;80.40;;;;;;4752960;30;19962;-82
2020/12/25 07:50:12;;;;;;;;;;;4.30;80.40;;;;;;4769007;30;19925;-83
2020/12/25 07:52:39;;;;;;;;;;;4.30;80.30;;;;;;4752535;30;19917;-83
2020/12/25 07:55:05;;;;;;;;;;;4.30;80.30;;;;;;4752536;30;19930;-82
2020/12/25 07:57:30;;;;;;;;;;;4.30;80.30;;;;;;4755094;30;20295;-83
2020/12/25 07:59:56;;;;;;;;;;;4.30;80.40;;;;;;4761243;30;19965;-83
2020/12/25 08:02:22;;;;;;;;;;;4.30;80.30;;;;;;4752529;30;20024;-83
2020/12/25 08:04:48;;;;;;;;;;;4.30;80.30;;;;;;4755104;30;20012;-82
2020/12/25 08:07:13;;;;;;;;;;;4.30;80.30;;;;;;4768273;30;20020;-83
2020/12/25 08:09:39;;;;;;;;;;;4.30;80.30;;;;;;4770094;30;19917;-82
2020/12/25 08:12:08;;;;;;;;;;;4.20;80.40;;;;;;4755923;30;19928;-83
2020/12/25 08:14:36;;;;;;;;;;;4.20;80.50;;;;;;4771897;30;19917;-83
2020/12/25 08:17:01;;;;;;;;;;;4.20;80.70;;;;;;4752914;30;19918;-82
2020/12/25 08:19:31;;;;;;;;;;;4.20;80.70;;;;;;4751043;30;20380;-82
2020/12/25 08:22:01;;;;;;;;;;;4.20;80.70;;;;;;4764895;30;19925;-83
2020/12/25 08:24:27;;;;;;;;;;;4.20;80.70;;;;;;4757235;30;19932;-83
2020/12/25 08:26:58;;;;;;;;;;;4.20;80.80;;;;;;4756065;30;19913;-82
2020/12/25 08:29:24;;;;;;;;;;;4.20;80.80;;;;;;4756476;30;20012;-83
2020/12/25 08:31:49;;;;;;;;;;;4.20;81.40;;;;;;4756053;30;20379;-82
2020/12/25 08:34:21;;;;;;;;;;;4.20;80.80;;;;;;4771996;30;19933;-82
2020/12/25 08:36:59;;;;;;;;;;;4.30;80.80;;;;;;4772021;30;19956;-83
2020/12/25 08:39:25;;;;;;;;;;;4.30;80.70;;;;;;4740780;30;19918;-82
2020/12/25 08:41:54;;;;;;;;;;;4.30;80.70;;;;;;4755881;30;19914;-82
2020/12/25 08:44:20;;;;;;;;;;;4.30;80.70;;;;;;4771512;30;19925;-82
2020/12/25 08:46:46;;;;;;;;;;;4.30;80.70;;;;;;4755671;30;19913;-83
2020/12/25 08:49:11;;;;;;;;;;;4.30;80.80;;;;;;4741120;30;20274;-82
2020/12/25 08:51:37;;;;;;;;;;;4.30;80.80;;;;;;4740580;30;19922;-83
2020/12/25 08:54:03;;;;;;;;;;;4.30;80.80;;;;;;4740582;30;19930;-83
2020/12/25 08:56:28;;;;;;;;;;;4.30;80.80;;;;;;4740505;30;20404;-83
2020/12/25 08:59:02;;;;;;;;;;;4.30;80.90;;;;;;4740832;30;19922;-83
2020/12/25 09:01:30;;;;;;;;;;;4.30;81.20;;;;;;4755165;30;19918;-83
2020/12/25 09:03:59;;;;;;;;;;;4.30;81.40;;;;;;4771496;30;20048;-82
2020/12/25 09:06:25;;;;;;;;;;;4.30;81.50;;;;;;4773409;30;19953;-83
2020/12/25 09:08:50;;;;;;;;;;;4.30;82.30;;;;;;4781571;30;20369;-81
2020/12/25 09:11:17;;;;;;;;;;;4.30;81.80;;;;;;4767658;30;19918;-83
2020/12/25 09:13:43;;;;;;;;;;;4.30;81.80;;;;;;4773831;30;19966;-83
2020/12/25 09:16:09;;;;;;;;;;;4.30;81.90;;;;;;4759343;30;19921;-83
2020/12/25 09:18:35;;;;;;;;;;;4.30;81.90;;;;;;4789943;30;19913;-82
2020/12/25 09:21:00;;;;;;;;;;;4.30;82.00;;;;;;4774096;30;19914;-83
2020/12/25 09:23:27;;;;;;;;;;;4.30;82.00;;;;;;4773604;30;19944;-83
2020/12/25 09:25:52;;;;;;;;;;;4.30;81.90;;;;;;4767287;30;20266;-83
2020/12/25 09:28:18;;;;;;;;;;;4.40;82.00;;;;;;4764917;30;19925;-83
2020/12/25 09:30:43;;;;;;;;;;;4.40;82.60;;;;;;4755631;30;19918;-83
2020/12/25 09:33:09;;;;;;;;;;;4.30;82.00;;;;;;4765820;30;20387;-82
2020/12/25 09:35:34;;;;;;;;;;;4.30;82.10;;;;;;4755403;30;19999;-83
2020/12/25 09:38:00;;;;;;;;;;;4.40;82.10;;;;;;4763527;30;20465;-82
2020/12/25 09:40:25;;;;;;;;;;;4.30;82.10;;;;;;4780890;30;19918;-83
2020/12/25 09:42:51;;;;;;;;;;;4.40;82.00;;;;;;4761100;30;19918;-83
2020/12/25 09:45:16;;;;;;;;;;;4.40;81.90;;;;;;4780439;30;19969;-83
2020/12/25 09:47:42;;;;;;;;;;;4.40;81.90;;;;;;4763099;30;19920;-83
2020/12/25 09:50:07;;;;;;;;;;;4.40;81.90;;;;;;4771821;30;19983;-83
2020/12/25 09:52:36;;;;;;;;;;;4.40;81.90;;;;;;4773457;30;19917;-83
2020/12/25 09:55:01;;;;;;;;;;;4.40;81.90;;;;;;4777710;24;20016;-87
2020/12/25 09:57:27;;;;;;;;;;;4.40;81.90;;;;;;4757371;30;20330;-87
2020/12/25 09:59:55;;;;;;;;;;;4.50;81.90;;;;;;4771041;30;20423;-87
2020/12/25 10:02:22;;;;;;;;;;;4.50;81.80;;;;;;4772468;30;20261;-87
2020/12/25 10:04:47;;;;;;;;;;;4.50;81.80;;;;;;4756171;30;20281;-87
2020/12/25 10:07:13;;;;;;;;;;;4.50;81.70;;;;;;4772383;30;19913;-87
2020/12/25 10:09:38;;;;;;;;;;;4.50;81.70;;;;;;4758018;30;19922;-87
2020/12/25 10:12:04;;;;;;;;;;;4.50;81.60;;;;;;4758152;30;19918;-86
2020/12/25 10:14:29;;;;;;;;;;;4.50;81.70;;;;;;4755231;30;20377;-87
2020/12/25 10:16:55;;;;;;;;;;;4.60;81.80;;;;;;4766062;30;20055;-87
2020/12/25 10:19:20;;;;;;;;;;;4.60;82.00;;;;;;4782597;30;20282;-86
2020/12/25 10:21:48;;;;;;;;;;;4.60;82.20;;;;;;4757774;30;19941;-86
2020/12/25 10:24:13;;;;;;;;;;;4.60;82.60;;;;;;4755381;30;19932;-86
2020/12/25 10:26:39;;;;;;;;;;;4.60;82.40;;;;;;4740492;30;20012;-87
2020/12/25 10:29:04;;;;;;;;;;;4.70;82.40;;;;;;4744368;30;20008;-87
2020/12/25 10:31:30;;;;;;;;;;;4.80;82.40;;;;;;4753121;30;19945;-86
2020/12/25 10:33:55;;;;;;;;;;;4.80;82.50;;;;;;4762818;30;19924;-87
2020/12/25 10:36:24;;;;;;;;;;;4.80;82.40;;;;;;4753791;30;20464;-87
2020/12/25 10:38:50;;;;;;;;;;;4.90;82.30;;;;;;4754393;30;20270;-86
2020/12/25 10:41:16;;;;;;;;;;;5.00;82.20;;;;;;4740005;30;19924;-86
2020/12/25 10:43:41;;;;;;;;;;;5.10;82.10;;;;;;4740081;30;19922;-87
2020/12/25 10:46:07;;;;;;;;;;;5.10;82.30;;;;;;4740375;30;19917;-87
2020/12/25 10:48:32;;;;;;;;;;;5.10;82.60;;;;;;4740379;30;19922;-87
2020/12/25 10:50:57;;;;;;;;;;;5.20;82.70;;;;;;4740559;30;19922;-86
2020/12/25 10:53:23;;;;;;;;;;;5.20;82.90;;;;;;4765524;30;19944;-89
2020/12/25 10:55:48;;;;;;;;;;;5.30;82.90;;;;;;4751513;30;19969;-87
2020/12/25 10:58:14;;;;;;;;;;;5.40;82.90;;;;;;4740420;30;19949;-87
2020/12/25 11:00:40;;;;;;;;;;;5.40;82.70;;;;;;4742062;30;19932;-87
2020/12/25 11:03:06;;;;;;;;;;;5.50;82.60;;;;;;4740425;30;19940;-87
2020/12/25 11:05:31;;;;;;;;;;;5.60;82.40;;;;;;4740174;30;19925;-86
2020/12/25 11:07:58;;;;;;;;;;;5.60;82.20;;;;;;4740043;30;19925;-87
2020/12/25 11:10:24;;;;;;;;;;;5.70;82.20;;;;;;4737790;30;19918;-87
2020/12/25 11:12:49;;;;;;;;;;;5.80;82.20;;;;;;4737764;30;19961;-87
2020/12/25 11:15:15;;;;;;;;;;;5.80;82.10;;;;;;4752654;30;20387;-87
2020/12/25 11:17:40;;;;;;;;;;;5.90;82.00;;;;;;4752933;30;19918;-87
2020/12/25 11:20:06;;;;;;;;;;;6.00;81.80;;;;;;4753719;30;20033;-88
2020/12/25 11:22:31;;;;;;;;;;;6.00;81.50;;;;;;4738489;30;19929;-87
2020/12/25 11:24:57;;;;;;;;;;;6.10;81.40;;;;;;4753904;30;19926;-87
2020/12/25 11:27:22;;;;;;;;;;;6.20;81.30;;;;;;4738890;30;19928;-87
2020/12/25 11:29:48;;;;;;;;;;;6.20;81.20;;;;;;4753197;30;19980;-87
2020/12/25 11:32:13;;;;;;;;;;;6.30;81.00;;;;;;4738812;30;19918;-88
2020/12/25 11:34:39;;;;;;;;;;;6.30;80.50;;;;;;4738674;30;19961;-87
2020/12/25 11:37:04;;;;;;;;;;;6.40;80.40;;;;;;4753234;30;19914;-88
2020/12/25 11:39:30;;;;;;;;;;;6.40;80.30;;;;;;4753293;30;19925;-87
2020/12/25 11:41:55;;;;;;;;;;;6.50;80.20;;;;;;4753619;30;20000;-87
2020/12/25 11:44:21;;;;;;;;;;;6.50;80.00;;;;;;4753630;30;19960;-88
2020/12/25 11:46:46;;;;;;;;;;;6.60;79.90;;;;;;4753286;30;19918;-87
2020/12/25 11:49:12;;;;;;;;;;;6.60;79.90;;;;;;4753879;30;20432;-87
2020/12/25 11:51:37;;;;;;;;;;;6.70;79.40;;;;;;4752556;30;20014;-87
2020/12/25 11:54:03;;;;;;;;;;;6.70;79.40;;;;;;4735362;30;20004;-87
2020/12/25 11:56:29;;;;;;;;;;;6.70;79.30;;;;;;4751236;30;19953;-87
2020/12/25 11:59:02;;;;;;;;;;;6.80;79.40;;;;;;4750551;30;19918;-88
2020/12/25 12:01:28;;;;;;;;;;;6.80;79.40;;;;;;4735497;30;19918;-88
2020/12/25 12:03:53;;;;;;;;;;;6.90;79.30;;;;;;4735822;30;20396;-87
2020/12/25 12:06:19;;;;;;;;;;;6.90;78.90;;;;;;4750441;30;19925;-88
2020/12/25 12:08:45;;;;;;;;;;;6.90;78.80;;;;;;4751120;30;20001;-88
2020/12/25 12:11:11;;;;;;;;;;;6.90;78.70;;;;;;4750378;30;19918;-88
2020/12/25 12:13:36;;;;;;;;;;;7.00;77.90;;;;;;4749988;30;19964;-87
2020/12/25 12:16:02;;;;;;;;;;;7.00;77.80;;;;;;4750232;30;20358;-87
2020/12/25 12:18:27;;;;;;;;;;;7.00;77.60;;;;;;4750211;30;19918;-87
2020/12/25 12:20:53;;;;;;;;;;;7.00;77.50;;;;;;4751503;30;19915;-88
2020/12/25 12:23:18;;;;;;;;;;;7.00;77.60;;;;;;4735506;30;20293;-87
2020/12/25 12:25:44;;;;;;;;;;;7.00;77.40;;;;;;4735197;30;19926;-88
2020/12/25 12:28:09;;;;;;;;;;;7.10;77.50;;;;;;4750098;30;19930;-87
2020/12/25 12:30:35;;;;;;;;;;;7.10;77.10;;;;;;4750034;30;19952;-87
2020/12/25 12:33:00;;;;;;;;;;;7.10;77.00;;;;;;4750323;30;19941;-86
2020/12/25 12:35:26;;;;;;;;;;;7.10;76.80;;;;;;4735368;30;20301;-87
2020/12/25 12:37:52;;;;;;;;;;;7.10;76.90;;;;;;4751041;30;20009;-88
2020/12/25 12:40:18;;;;;;;;;;;7.10;77.60;;;;;;4750091;30;19925;-88
2020/12/25 12:42:43;;;;;;;;;;;7.10;76.90;;;;;;4749871;30;19918;-87
2020/12/25 12:45:09;;;;;;;;;;;7.20;76.90;;;;;;4735393;30;19955;-88
2020/12/25 12:47:38;;;;;;;;;;;7.20;77.00;;;;;;4735127;30;19918;-88
2020/12/25 12:50:05;;;;;;;;;;;7.30;77.10;;;;;;4750211;30;19914;-88
2020/12/25 12:52:30;;;;;;;;;;;7.30;77.10;;;;;;4750955;30;19918;-88
2020/12/25 12:54:56;;;;;;;;;;;7.30;77.00;;;;;;4735176;30;19937;-88
2020/12/25 12:57:21;;;;;;;;;;;7.30;76.80;;;;;;4735285;30;19918;-87
2020/12/25 12:59:47;;;;;;;;;;;7.30;76.40;;;;;;4734790;30;19982;-87
2020/12/25 13:02:12;;;;;;;;;;;7.20;76.50;;;;;;4750071;30;19984;-88
2020/12/25 13:04:38;;;;;;;;;;;7.30;76.60;;;;;;4737428;30;19972;-88
2020/12/25 13:07:06;;;;;;;;;;;7.20;76.30;;;;;;4753065;30;19919;-88
2020/12/25 13:09:32;;;;;;;;;;;7.20;76.60;;;;;;4752774;30;19914;-87
2020/12/25 13:11:58;;;;;;;;;;;7.30;76.70;;;;;;4738363;30;19945;-88
2020/12/25 13:14:24;;;;;;;;;;;7.30;76.80;;;;;;4738317;30;19922;-88
2020/12/25 13:16:50;;;;;;;;;;;7.30;76.80;;;;;;4738131;30;19976;-88
2020/12/25 13:19:16;;;;;;;;;;;7.40;76.80;;;;;;4752921;30;19918;-88
2020/12/25 13:21:41;;;;;;;;;;;7.40;76.40;;;;;;4752382;30;19921;-87
2020/12/25 13:24:07;;;;;;;;;;;7.30;76.30;;;;;;4752850;30;19957;-88
2020/12/25 13:26:33;;;;;;;;;;;7.30;76.90;;;;;;4752456;30;19918;-88
2020/12/25 13:28:58;;;;;;;;;;;7.40;76.40;;;;;;4738159;30;20017;-88
2020/12/25 13:31:24;;;;;;;;;;;7.40;76.30;;;;;;4752856;30;19947;-87
2020/12/25 13:33:50;;;;;;;;;;;7.40;76.10;;;;;;4752305;30;19925;-87
2020/12/25 13:36:17;;;;;;;;;;;7.30;76.00;;;;;;4752443;30;19918;-87
2020/12/25 13:38:43;;;;;;;;;;;7.30;75.90;;;;;;4752193;30;19941;-87
2020/12/25 13:41:09;;;;;;;;;;;7.30;75.60;;;;;;4752499;30;20381;-87
2020/12/25 13:43:35;;;;;;;;;;;7.30;75.60;;;;;;4737418;30;19972;-88
2020/12/25 13:46:00;;;;;;;;;;;7.30;75.80;;;;;;4752430;30;20336;-87
2020/12/25 13:48:26;;;;;;;;;;;7.40;75.80;;;;;;4752363;30;19980;-88
2020/12/25 13:50:52;;;;;;;;;;;7.30;75.50;;;;;;4737204;30;20366;-87
2020/12/25 13:53:17;;;;;;;;;;;7.30;75.60;;;;;;4753610;30;19922;-87
2020/12/25 13:55:43;;;;;;;;;;;7.30;75.60;;;;;;4740090;30;19926;-87
2020/12/25 13:58:08;;;;;;;;;;;7.30;75.30;;;;;;4740678;30;20460;-87
2020/12/25 14:00:33;;;;;;;;;;;7.30;75.30;;;;;;4754960;30;19924;-87
2020/12/25 14:02:59;;;;;;;;;;;7.30;75.50;;;;;;4755254;30;19918;-88
2020/12/25 14:05:24;;;;;;;;;;;7.30;75.10;;;;;;4740280;30;20361;-87
2020/12/25 14:07:50;;;;;;;;;;;7.30;75.10;;;;;;4739776;30;19918;-87
2020/12/25 14:10:15;;;;;;;;;;;7.30;75.20;;;;;;4754996;30;19969;-88
2020/12/25 14:12:41;;;;;;;;;;;7.30;75.20;;;;;;4739875;30;19951;-86
2020/12/25 14:15:07;;;;;;;;;;;7.30;75.10;;;;;;4739468;30;19952;-88
2020/12/25 14:17:33;;;;;;;;;;;7.30;75.20;;;;;;4754491;30;19918;-87
2020/12/25 14:19:58;;;;;;;;;;;7.30;75.40;;;;;;4754630;30;20429;-87
2020/12/25 14:22:24;;;;;;;;;;;7.30;75.40;;;;;;4754677;30;20010;-87
2020/12/25 14:24:50;;;;;;;;;;;7.30;75.30;;;;;;4754375;30;19929;-87